createdAt,value
2022-07-25T00:11:54.489Z,8694.77051
2022-07-25T00:26:56.714Z,10484.12988
2022-07-25T00:41:59.689Z,3736.71606
2022-07-25T00:57:02.172Z,13461.87109
2022-07-25T01:12:04.641Z,3888.89868
2022-07-25T01:27:07.799Z,3411.99487
2022-07-25T01:42:19.536Z,6364.53369
2022-07-25T01:57:21.988Z,2880.80933
2022-07-25T02:12:27.599Z,1122.46875
2022-07-25T02:27:29.914Z,781.26929
2022-07-25T02:42:32.341Z,510.82993
2022-07-25T02:57:34.642Z,349.92334
2022-07-25T03:12:37.105Z,280.13254
2022-07-25T03:27:39.471Z,114.37937
2022-07-25T03:42:41.996Z,20.35565
2022-07-25T03:57:44.271Z,3.87727
2022-07-25T04:12:46.555Z,0
2022-07-25T04:27:48.844Z,0
2022-07-25T04:42:51.108Z,0
2022-07-25T04:57:53.429Z,0
2022-07-25T05:12:55.730Z,0
2022-07-25T05:27:58.191Z,0
2022-07-25T05:43:03.282Z,0
2022-07-25T05:58:06.172Z,0
2022-07-25T06:13:08.451Z,0
2022-07-25T06:28:12.666Z,0
2022-07-25T06:43:20.539Z,0
2022-07-25T06:58:24.050Z,0
2022-07-25T07:13:28.497Z,0
2022-07-25T07:28:30.878Z,0
2022-07-25T07:43:33.166Z,0
2022-07-25T07:58:35.624Z,0
2022-07-25T08:13:37.923Z,0
2022-07-25T08:28:40.240Z,0
2022-07-25T08:43:42.697Z,0
2022-07-25T08:58:44.995Z,0
2022-07-25T09:13:47.292Z,0
2022-07-25T09:28:49.786Z,0
2022-07-25T09:43:52.142Z,0
2022-07-25T09:58:54.436Z,0
2022-07-25T10:13:56.747Z,0
2022-07-25T10:28:59.045Z,0
2022-07-25T10:44:01.420Z,0
2022-07-25T10:59:03.902Z,0
2022-07-25T11:14:06.415Z,0
2022-07-25T11:29:09.344Z,0
2022-07-25T11:44:11.944Z,0.96932
2022-07-25T11:59:14.293Z,7.75453
2022-07-25T12:14:16.599Z,31.01814
2022-07-25T12:29:18.877Z,81.42261
2022-07-25T12:44:21.312Z,157.99863
2022-07-25T12:59:23.601Z,256.86893
2022-07-25T13:14:26.468Z,465.27203
2022-07-25T13:29:28.871Z,1013.90527
2022-07-25T13:44:31.844Z,1128.28467
2022-07-25T13:59:34.141Z,1186.44373
2022-07-25T14:14:36.623Z,1803.89844
2022-07-25T14:29:38.941Z,1755.43262
2022-07-25T14:44:41.329Z,2400.99756
2022-07-25T14:59:43.649Z,3246.2417
2022-07-25T15:14:46.639Z,2829.43555
2022-07-25T15:29:48.961Z,2533.79395
2022-07-25T15:45:03.856Z,3873.38965
2022-07-25T16:00:17.843Z,5911.86279
2022-07-25T16:15:20.137Z,6033.99658
2022-07-25T16:30:22.547Z,5610.40527
2022-07-25T16:45:24.824Z,5532.85986
2022-07-25T17:00:27.127Z,5664.68701
2022-07-25T17:15:29.456Z,5534.79834
2022-07-25T17:30:31.854Z,5322.51807
2022-07-25T17:45:34.184Z,5071.46484
2022-07-25T18:00:36.462Z,5041.4165
2022-07-25T18:15:38.883Z,5139.31738
2022-07-25T18:30:41.264Z,5172.27393
2022-07-25T18:45:43.751Z,5168.39697
2022-07-25T19:00:47.138Z,4897.95752
2022-07-25T19:15:49.569Z,4751.59033
2022-07-25T19:30:51.962Z,4659.50537
2022-07-25T19:45:54.450Z,4782.60889
2022-07-25T20:00:56.865Z,5000.70508
2022-07-25T20:15:59.180Z,5176.15137
2022-07-25T20:31:01.617Z,4991.01172
2022-07-25T20:46:08.848Z,5213.95459
2022-07-25T21:01:11.761Z,4856.27686
2022-07-25T21:16:14.061Z,5078.25049
2022-07-25T21:31:16.412Z,6169.70117
2022-07-25T21:46:18.826Z,7455.98438
2022-07-25T22:01:21.659Z,8823.69043
2022-07-25T22:16:24.120Z,10658.60645
2022-07-25T22:31:26.491Z,11372.02344
2022-07-25T22:46:29.032Z,11590.12012
2022-07-25T23:01:31.483Z,12604.99512
2022-07-25T23:16:33.864Z,13934.89746
2022-07-25T23:31:36.269Z,15292.91016
2022-07-25T23:46:38.691Z,15872.56152
